ΕΜΥ, Εθνική Μετεωρολογική Υπηρεσία - Δελτία Καιρού, Προγνώσεις

ΑΕΡΟΝΑΥΤΙΛΙΑ

GREEK AIRPORTS CODES

LGAV 311420Z 11009KT CAVOK 39/08 Q1007 NOSIG=

EUROPEAN AIRPORTS CODES

TAF LGAV 311100Z 3112/0112 10010KT CAVOK BECMG 3116/3118 VRB03KT BECMG 0104/0106 02012KT=